sensor_id;sensor_type;location;lat;lon;timestamp;P1;durP1;ratioP1;P2;durP2;ratioP2
69305;SDS011;56427;51.580;4.656;2024-03-17T00:01:44;13.67;;;7.20;;
69305;SDS011;56427;51.580;4.656;2024-03-17T00:04:09;12.90;;;7.60;;
69305;SDS011;56427;51.580;4.656;2024-03-17T00:06:34;13.17;;;7.90;;
69305;SDS011;56427;51.580;4.656;2024-03-17T00:09:00;14.40;;;7.73;;
69305;SDS011;56427;51.580;4.656;2024-03-17T00:11:31;15.65;;;7.65;;
69305;SDS011;56427;51.580;4.656;2024-03-17T00:13:56;14.07;;;7.68;;
69305;SDS011;56427;51.580;4.656;2024-03-17T00:16:22;11.23;;;6.97;;
69305;SDS011;56427;51.580;4.656;2024-03-17T00:18:47;13.13;;;7.93;;
69305;SDS011;56427;51.580;4.656;2024-03-17T00:21:12;12.87;;;7.97;;
69305;SDS011;56427;51.580;4.656;2024-03-17T00:23:41;14.27;;;8.40;;
69305;SDS011;56427;51.580;4.656;2024-03-17T00:26:06;13.97;;;8.13;;
69305;SDS011;56427;51.580;4.656;2024-03-17T00:28:32;15.13;;;8.30;;
69305;SDS011;56427;51.580;4.656;2024-03-17T00:30:57;13.83;;;9.03;;
69305;SDS011;56427;51.580;4.656;2024-03-17T00:33:22;16.65;;;8.73;;
69305;SDS011;56427;51.580;4.656;2024-03-17T00:35:49;14.03;;;8.73;;
69305;SDS011;56427;51.580;4.656;2024-03-17T00:38:14;11.68;;;8.07;;
69305;SDS011;56427;51.580;4.656;2024-03-17T00:40:39;14.23;;;8.80;;
69305;SDS011;56427;51.580;4.656;2024-03-17T00:43:10;14.82;;;8.95;;
69305;SDS011;56427;51.580;4.656;2024-03-17T00:45:36;13.70;;;8.83;;
69305;SDS011;56427;51.580;4.656;2024-03-17T00:48:02;18.23;;;8.88;;
69305;SDS011;56427;51.580;4.656;2024-03-17T00:50:27;15.07;;;9.10;;
69305;SDS011;56427;51.580;4.656;2024-03-17T00:52:53;13.47;;;8.70;;
69305;SDS011;56427;51.580;4.656;2024-03-17T00:55:18;16.40;;;8.67;;
69305;SDS011;56427;51.580;4.656;2024-03-17T00:57:43;15.30;;;8.93;;
69305;SDS011;56427;51.580;4.656;2024-03-17T01:00:09;14.93;;;8.73;;
69305;SDS011;56427;51.580;4.656;2024-03-17T01:02:38;13.88;;;9.05;;
69305;SDS011;56427;51.580;4.656;2024-03-17T01:05:04;17.23;;;9.05;;
69305;SDS011;56427;51.580;4.656;2024-03-17T01:07:30;17.00;;;9.17;;
69305;SDS011;56427;51.580;4.656;2024-03-17T01:09:56;15.15;;;9.30;;
69305;SDS011;56427;51.580;4.656;2024-03-17T01:12:21;15.70;;;9.00;;
69305;SDS011;56427;51.580;4.656;2024-03-17T01:14:47;15.50;;;9.00;;
69305;SDS011;56427;51.580;4.656;2024-03-17T01:17:12;16.07;;;9.70;;
69305;SDS011;56427;51.580;4.656;2024-03-17T01:19:37;13.97;;;9.17;;
69305;SDS011;56427;51.580;4.656;2024-03-17T01:22:02;18.23;;;8.63;;
69305;SDS011;56427;51.580;4.656;2024-03-17T01:24:28;16.40;;;9.65;;
69305;SDS011;56427;51.580;4.656;2024-03-17T01:26:59;13.87;;;9.07;;
69305;SDS011;56427;51.580;4.656;2024-03-17T01:29:26;16.73;;;8.68;;
69305;SDS011;56427;51.580;4.656;2024-03-17T01:31:52;15.68;;;9.40;;
69305;SDS011;56427;51.580;4.656;2024-03-17T01:34:18;13.67;;;9.20;;
69305;SDS011;56427;51.580;4.656;2024-03-17T01:36:43;13.43;;;9.55;;
69305;SDS011;56427;51.580;4.656;2024-03-17T01:39:09;15.90;;;9.33;;
69305;SDS011;56427;51.580;4.656;2024-03-17T01:41:34;15.30;;;9.67;;
69305;SDS011;56427;51.580;4.656;2024-03-17T01:44:00;14.03;;;8.53;;
69305;SDS011;56427;51.580;4.656;2024-03-17T01:46:25;14.53;;;8.97;;
69305;SDS011;56427;51.580;4.656;2024-03-17T01:48:50;15.38;;;9.13;;
69305;SDS011;56427;51.580;4.656;2024-03-17T01:51:16;16.42;;;8.75;;
69305;SDS011;56427;51.580;4.656;2024-03-17T01:53:43;14.77;;;8.55;;
69305;SDS011;56427;51.580;4.656;2024-03-17T01:56:10;15.53;;;8.97;;
69305;SDS011;56427;51.580;4.656;2024-03-17T01:58:36;15.82;;;9.40;;
69305;SDS011;56427;51.580;4.656;2024-03-17T02:01:02;13.82;;;9.23;;
69305;SDS011;56427;51.580;4.656;2024-03-17T02:03:29;13.90;;;7.95;;
69305;SDS011;56427;51.580;4.656;2024-03-17T02:05:54;13.98;;;8.20;;
69305;SDS011;56427;51.580;4.656;2024-03-17T02:08:20;12.47;;;8.10;;
69305;SDS011;56427;51.580;4.656;2024-03-17T02:10:51;13.05;;;8.52;;
69305;SDS011;56427;51.580;4.656;2024-03-17T02:13:17;13.23;;;8.23;;
69305;SDS011;56427;51.580;4.656;2024-03-17T02:15:43;13.95;;;8.00;;
69305;SDS011;56427;51.580;4.656;2024-03-17T02:18:08;12.33;;;8.30;;
69305;SDS011;56427;51.580;4.656;2024-03-17T02:20:33;14.10;;;9.13;;
69305;SDS011;56427;51.580;4.656;2024-03-17T02:23:17;16.60;;;8.80;;
69305;SDS011;56427;51.580;4.656;2024-03-17T02:25:43;13.07;;;8.00;;
69305;SDS011;56427;51.580;4.656;2024-03-17T02:28:10;16.23;;;8.10;;
69305;SDS011;56427;51.580;4.656;2024-03-17T02:30:36;13.33;;;7.53;;
69305;SDS011;56427;51.580;4.656;2024-03-17T02:33:02;13.70;;;8.50;;
69305;SDS011;56427;51.580;4.656;2024-03-17T02:35:28;13.57;;;7.88;;
69305;SDS011;56427;51.580;4.656;2024-03-17T02:37:53;14.37;;;8.10;;
69305;SDS011;56427;51.580;4.656;2024-03-17T02:40:18;15.47;;;8.47;;
69305;SDS011;56427;51.580;4.656;2024-03-17T02:42:44;15.47;;;8.43;;
69305;SDS011;56427;51.580;4.656;2024-03-17T02:45:10;13.00;;;8.43;;
69305;SDS011;56427;51.580;4.656;2024-03-17T02:47:37;13.50;;;8.43;;
69305;SDS011;56427;51.580;4.656;2024-03-17T02:50:02;14.23;;;7.97;;
69305;SDS011;56427;51.580;4.656;2024-03-17T02:52:29;14.68;;;8.70;;
69305;SDS011;56427;51.580;4.656;2024-03-17T02:54:55;15.13;;;7.87;;
69305;SDS011;56427;51.580;4.656;2024-03-17T02:57:21;14.80;;;8.37;;
69305;SDS011;56427;51.580;4.656;2024-03-17T02:59:49;14.18;;;8.43;;
69305;SDS011;56427;51.580;4.656;2024-03-17T03:02:15;14.80;;;8.30;;
69305;SDS011;56427;51.580;4.656;2024-03-17T03:04:40;12.97;;;8.03;;
69305;SDS011;56427;51.580;4.656;2024-03-17T03:07:05;12.10;;;8.43;;
69305;SDS011;56427;51.580;4.656;2024-03-17T03:09:30;13.07;;;8.55;;
69305;SDS011;56427;51.580;4.656;2024-03-17T03:11:57;13.97;;;8.00;;
69305;SDS011;56427;51.580;4.656;2024-03-17T03:14:23;15.15;;;8.85;;
69305;SDS011;56427;51.580;4.656;2024-03-17T03:16:49;12.70;;;8.27;;
69305;SDS011;56427;51.580;4.656;2024-03-17T03:19:14;13.03;;;8.23;;
69305;SDS011;56427;51.580;4.656;2024-03-17T03:21:40;15.65;;;8.90;;
69305;SDS011;56427;51.580;4.656;2024-03-17T03:24:06;14.33;;;9.03;;
69305;SDS011;56427;51.580;4.656;2024-03-17T03:26:31;12.50;;;8.87;;
69305;SDS011;56427;51.580;4.656;2024-03-17T03:28:56;19.48;;;9.48;;
69305;SDS011;56427;51.580;4.656;2024-03-17T03:31:22;17.10;;;9.37;;
69305;SDS011;56427;51.580;4.656;2024-03-17T03:33:47;15.63;;;9.63;;
69305;SDS011;56427;51.580;4.656;2024-03-17T03:36:13;15.83;;;9.13;;
69305;SDS011;56427;51.580;4.656;2024-03-17T03:38:40;13.15;;;8.60;;
69305;SDS011;56427;51.580;4.656;2024-03-17T03:41:09;15.25;;;8.73;;
69305;SDS011;56427;51.580;4.656;2024-03-17T03:43:35;18.15;;;9.10;;
69305;SDS011;56427;51.580;4.656;2024-03-17T03:46:01;18.80;;;9.50;;
69305;SDS011;56427;51.580;4.656;2024-03-17T03:48:27;14.23;;;8.88;;
69305;SDS011;56427;51.580;4.656;2024-03-17T03:50:53;14.17;;;8.97;;
69305;SDS011;56427;51.580;4.656;2024-03-17T03:53:19;18.15;;;9.43;;
69305;SDS011;56427;51.580;4.656;2024-03-17T03:55:44;16.83;;;9.57;;
69305;SDS011;56427;51.580;4.656;2024-03-17T03:58:10;16.53;;;9.70;;
69305;SDS011;56427;51.580;4.656;2024-03-17T04:00:37;15.43;;;8.70;;
69305;SDS011;56427;51.580;4.656;2024-03-17T04:03:04;14.98;;;8.88;;
69305;SDS011;56427;51.580;4.656;2024-03-17T04:05:30;16.70;;;9.00;;
69305;SDS011;56427;51.580;4.656;2024-03-17T04:07:55;14.40;;;8.90;;
69305;SDS011;56427;51.580;4.656;2024-03-17T04:10:20;14.27;;;9.13;;
69305;SDS011;56427;51.580;4.656;2024-03-17T04:12:46;15.30;;;9.20;;
69305;SDS011;56427;51.580;4.656;2024-03-17T04:15:12;15.00;;;9.48;;
69305;SDS011;56427;51.580;4.656;2024-03-17T04:17:39;15.75;;;9.10;;
69305;SDS011;56427;51.580;4.656;2024-03-17T04:20:05;12.63;;;8.60;;
69305;SDS011;56427;51.580;4.656;2024-03-17T04:22:33;13.93;;;8.60;;
69305;SDS011;56427;51.580;4.656;2024-03-17T04:24:58;14.48;;;9.00;;
69305;SDS011;56427;51.580;4.656;2024-03-17T04:27:24;13.17;;;8.17;;
69305;SDS011;56427;51.580;4.656;2024-03-17T04:29:51;16.55;;;9.15;;
69305;SDS011;56427;51.580;4.656;2024-03-17T04:32:17;14.85;;;8.18;;
69305;SDS011;56427;51.580;4.656;2024-03-17T04:34:43;13.30;;;8.33;;
69305;SDS011;56427;51.580;4.656;2024-03-17T04:37:08;14.63;;;8.23;;
69305;SDS011;56427;51.580;4.656;2024-03-17T04:39:36;13.70;;;7.97;;
69305;SDS011;56427;51.580;4.656;2024-03-17T04:42:03;12.40;;;8.25;;
69305;SDS011;56427;51.580;4.656;2024-03-17T04:44:29;12.87;;;8.13;;
69305;SDS011;56427;51.580;4.656;2024-03-17T04:46:54;12.63;;;8.00;;
69305;SDS011;56427;51.580;4.656;2024-03-17T04:49:19;13.57;;;8.23;;
69305;SDS011;56427;51.580;4.656;2024-03-17T04:51:45;13.63;;;9.27;;
69305;SDS011;56427;51.580;4.656;2024-03-17T04:54:10;15.17;;;8.90;;
69305;SDS011;56427;51.580;4.656;2024-03-17T04:56:36;15.80;;;8.70;;
69305;SDS011;56427;51.580;4.656;2024-03-17T04:59:02;12.23;;;8.63;;
69305;SDS011;56427;51.580;4.656;2024-03-17T05:01:27;15.70;;;8.83;;
69305;SDS011;56427;51.580;4.656;2024-03-17T05:03:52;14.50;;;9.03;;
69305;SDS011;56427;51.580;4.656;2024-03-17T05:06:18;14.63;;;8.60;;
69305;SDS011;56427;51.580;4.656;2024-03-17T05:08:43;16.13;;;8.50;;
69305;SDS011;56427;51.580;4.656;2024-03-17T05:11:09;13.90;;;8.43;;
69305;SDS011;56427;51.580;4.656;2024-03-17T05:13:35;15.07;;;9.13;;
69305;SDS011;56427;51.580;4.656;2024-03-17T05:16:01;13.25;;;8.57;;
69305;SDS011;56427;51.580;4.656;2024-03-17T05:18:27;14.00;;;9.10;;
69305;SDS011;56427;51.580;4.656;2024-03-17T05:23:28;14.40;;;8.70;;
69305;SDS011;56427;51.580;4.656;2024-03-17T05:25:55;20.58;;;9.00;;
69305;SDS011;56427;51.580;4.656;2024-03-17T05:28:22;14.88;;;8.65;;
69305;SDS011;56427;51.580;4.656;2024-03-17T05:30:48;15.98;;;9.60;;
69305;SDS011;56427;51.580;4.656;2024-03-17T05:33:15;15.32;;;9.15;;
69305;SDS011;56427;51.580;4.656;2024-03-17T05:35:41;17.13;;;8.68;;
69305;SDS011;56427;51.580;4.656;2024-03-17T05:38:14;16.53;;;8.80;;
69305;SDS011;56427;51.580;4.656;2024-03-17T05:40:39;14.82;;;8.38;;
69305;SDS011;56427;51.580;4.656;2024-03-17T05:43:06;13.38;;;8.25;;
69305;SDS011;56427;51.580;4.656;2024-03-17T05:45:31;14.68;;;9.02;;
69305;SDS011;56427;51.580;4.656;2024-03-17T05:47:57;17.88;;;9.18;;
69305;SDS011;56427;51.580;4.656;2024-03-17T05:50:25;15.90;;;9.27;;
69305;SDS011;56427;51.580;4.656;2024-03-17T05:52:52;13.82;;;8.65;;
69305;SDS011;56427;51.580;4.656;2024-03-17T05:55:17;13.57;;;8.33;;
69305;SDS011;56427;51.580;4.656;2024-03-17T05:57:43;12.97;;;8.03;;
69305;SDS011;56427;51.580;4.656;2024-03-17T06:00:09;12.60;;;8.00;;
69305;SDS011;56427;51.580;4.656;2024-03-17T06:02:35;12.20;;;8.35;;
69305;SDS011;56427;51.580;4.656;2024-03-17T06:05:00;12.37;;;8.20;;
69305;SDS011;56427;51.580;4.656;2024-03-17T06:07:29;11.77;;;8.07;;
69305;SDS011;56427;51.580;4.656;2024-03-17T06:09:55;23.02;;;9.07;;
69305;SDS011;56427;51.580;4.656;2024-03-17T06:12:20;14.30;;;9.03;;
69305;SDS011;56427;51.580;4.656;2024-03-17T06:14:46;14.48;;;8.10;;
69305;SDS011;56427;51.580;4.656;2024-03-17T06:17:11;12.88;;;8.27;;
69305;SDS011;56427;51.580;4.656;2024-03-17T06:19:36;13.53;;;7.97;;
69305;SDS011;56427;51.580;4.656;2024-03-17T06:22:02;14.70;;;7.73;;
69305;SDS011;56427;51.580;4.656;2024-03-17T06:24:28;11.07;;;7.87;;
69305;SDS011;56427;51.580;4.656;2024-03-17T06:26:53;13.15;;;8.25;;
69305;SDS011;56427;51.580;4.656;2024-03-17T06:29:18;12.77;;;7.60;;
69305;SDS011;56427;51.580;4.656;2024-03-17T06:31:45;11.80;;;7.60;;
69305;SDS011;56427;51.580;4.656;2024-03-17T06:34:10;13.30;;;7.50;;
69305;SDS011;56427;51.580;4.656;2024-03-17T06:36:36;13.17;;;7.33;;
69305;SDS011;56427;51.580;4.656;2024-03-17T06:39:01;14.27;;;6.87;;
69305;SDS011;56427;51.580;4.656;2024-03-17T06:41:26;13.87;;;7.47;;
69305;SDS011;56427;51.580;4.656;2024-03-17T06:43:51;12.60;;;7.87;;
69305;SDS011;56427;51.580;4.656;2024-03-17T06:46:17;14.43;;;8.60;;
69305;SDS011;56427;51.580;4.656;2024-03-17T06:48:42;11.95;;;7.68;;
69305;SDS011;56427;51.580;4.656;2024-03-17T06:51:07;13.43;;;8.23;;
69305;SDS011;56427;51.580;4.656;2024-03-17T06:53:33;14.40;;;6.97;;
69305;SDS011;56427;51.580;4.656;2024-03-17T06:55:59;17.27;;;7.43;;
69305;SDS011;56427;51.580;4.656;2024-03-17T06:58:25;13.07;;;7.25;;
69305;SDS011;56427;51.580;4.656;2024-03-17T07:00:59;10.80;;;6.90;;
69305;SDS011;56427;51.580;4.656;2024-03-17T07:03:26;13.15;;;7.30;;
69305;SDS011;56427;51.580;4.656;2024-03-17T07:05:53;12.93;;;6.90;;
69305;SDS011;56427;51.580;4.656;2024-03-17T07:08:20;13.95;;;7.15;;
69305;SDS011;56427;51.580;4.656;2024-03-17T07:13:42;12.27;;;6.80;;
69305;SDS011;56427;51.580;4.656;2024-03-17T07:16:08;10.87;;;7.00;;
69305;SDS011;56427;51.580;4.656;2024-03-17T07:18:34;11.32;;;6.60;;
69305;SDS011;56427;51.580;4.656;2024-03-17T07:21:01;13.43;;;7.60;;
69305;SDS011;56427;51.580;4.656;2024-03-17T07:23:29;10.80;;;6.22;;
69305;SDS011;56427;51.580;4.656;2024-03-17T07:25:55;10.68;;;6.90;;
69305;SDS011;56427;51.580;4.656;2024-03-17T07:28:21;12.75;;;7.55;;
69305;SDS011;56427;51.580;4.656;2024-03-17T07:30:48;11.43;;;6.80;;
69305;SDS011;56427;51.580;4.656;2024-03-17T07:33:15;10.65;;;6.32;;
69305;SDS011;56427;51.580;4.656;2024-03-17T07:36:13;12.87;;;7.07;;
69305;SDS011;56427;51.580;4.656;2024-03-17T07:38:33;11.57;;;6.60;;
69305;SDS011;56427;51.580;4.656;2024-03-17T07:41:04;16.30;;;7.50;;
69305;SDS011;56427;51.580;4.656;2024-03-17T07:43:32;9.52;;;6.40;;
69305;SDS011;56427;51.580;4.656;2024-03-17T07:46:06;10.98;;;6.50;;
69305;SDS011;56427;51.580;4.656;2024-03-17T07:48:36;12.32;;;6.32;;
69305;SDS011;56427;51.580;4.656;2024-03-17T07:51:06;10.57;;;6.50;;
69305;SDS011;56427;51.580;4.656;2024-03-17T07:53:36;11.65;;;6.95;;
69305;SDS011;56427;51.580;4.656;2024-03-17T07:56:03;10.65;;;5.72;;
69305;SDS011;56427;51.580;4.656;2024-03-17T07:58:30;13.50;;;6.10;;
69305;SDS011;56427;51.580;4.656;2024-03-17T08:01:00;10.88;;;6.55;;
69305;SDS011;56427;51.580;4.656;2024-03-17T08:03:27;14.32;;;5.90;;
69305;SDS011;56427;51.580;4.656;2024-03-17T08:05:56;11.02;;;6.00;;
69305;SDS011;56427;51.580;4.656;2024-03-17T08:08:22;11.07;;;6.13;;
69305;SDS011;56427;51.580;4.656;2024-03-17T08:10:49;11.45;;;6.45;;
69305;SDS011;56427;51.580;4.656;2024-03-17T08:13:15;11.25;;;6.50;;
69305;SDS011;56427;51.580;4.656;2024-03-17T08:15:41;12.57;;;6.32;;
69305;SDS011;56427;51.580;4.656;2024-03-17T08:18:08;10.50;;;6.20;;
69305;SDS011;56427;51.580;4.656;2024-03-17T08:20:40;11.57;;;6.57;;
69305;SDS011;56427;51.580;4.656;2024-03-17T08:23:07;12.10;;;6.47;;
69305;SDS011;56427;51.580;4.656;2024-03-17T08:25:33;11.20;;;6.07;;
69305;SDS011;56427;51.580;4.656;2024-03-17T08:27:59;10.63;;;6.13;;
69305;SDS011;56427;51.580;4.656;2024-03-17T08:30:25;11.43;;;6.10;;
69305;SDS011;56427;51.580;4.656;2024-03-17T08:32:50;11.50;;;6.70;;
69305;SDS011;56427;51.580;4.656;2024-03-17T08:35:15;10.33;;;6.53;;
69305;SDS011;56427;51.580;4.656;2024-03-17T08:37:41;10.20;;;6.00;;
69305;SDS011;56427;51.580;4.656;2024-03-17T08:40:06;9.60;;;5.87;;
69305;SDS011;56427;51.580;4.656;2024-03-17T08:42:32;12.05;;;6.13;;
69305;SDS011;56427;51.580;4.656;2024-03-17T08:44:57;9.17;;;6.20;;
69305;SDS011;56427;51.580;4.656;2024-03-17T08:47:23;11.05;;;5.88;;
69305;SDS011;56427;51.580;4.656;2024-03-17T08:49:51;8.47;;;5.17;;
69305;SDS011;56427;51.580;4.656;2024-03-17T08:52:17;10.20;;;5.22;;
69305;SDS011;56427;51.580;4.656;2024-03-17T08:54:45;10.43;;;5.50;;
69305;SDS011;56427;51.580;4.656;2024-03-17T08:57:11;9.18;;;5.40;;
69305;SDS011;56427;51.580;4.656;2024-03-17T08:59:37;9.90;;;5.53;;
69305;SDS011;56427;51.580;4.656;2024-03-17T09:02:02;11.10;;;5.80;;
69305;SDS011;56427;51.580;4.656;2024-03-17T09:04:28;12.98;;;5.63;;
69305;SDS011;56427;51.580;4.656;2024-03-17T09:06:54;9.03;;;4.80;;
69305;SDS011;56427;51.580;4.656;2024-03-17T09:09:21;10.38;;;5.30;;
69305;SDS011;56427;51.580;4.656;2024-03-17T09:11:46;8.10;;;5.60;;
69305;SDS011;56427;51.580;4.656;2024-03-17T09:14:12;7.07;;;4.73;;
69305;SDS011;56427;51.580;4.656;2024-03-17T09:16:37;11.40;;;5.30;;
69305;SDS011;56427;51.580;4.656;2024-03-17T09:19:02;9.80;;;5.27;;
69305;SDS011;56427;51.580;4.656;2024-03-17T09:21:28;9.57;;;5.00;;
69305;SDS011;56427;51.580;4.656;2024-03-17T09:23:53;11.83;;;5.90;;
69305;SDS011;56427;51.580;4.656;2024-03-17T09:26:18;10.13;;;5.60;;
69305;SDS011;56427;51.580;4.656;2024-03-17T09:28:44;8.87;;;5.23;;
69305;SDS011;56427;51.580;4.656;2024-03-17T09:31:09;9.57;;;6.00;;
69305;SDS011;56427;51.580;4.656;2024-03-17T09:33:36;7.67;;;5.03;;
69305;SDS011;56427;51.580;4.656;2024-03-17T09:36:02;8.35;;;5.05;;
69305;SDS011;56427;51.580;4.656;2024-03-17T09:38:32;10.82;;;5.07;;
69305;SDS011;56427;51.580;4.656;2024-03-17T09:40:58;10.80;;;5.40;;
69305;SDS011;56427;51.580;4.656;2024-03-17T09:43:27;9.43;;;5.35;;
69305;SDS011;56427;51.580;4.656;2024-03-17T09:45:54;9.67;;;5.50;;
69305;SDS011;56427;51.580;4.656;2024-03-17T09:48:22;10.80;;;5.38;;
69305;SDS011;56427;51.580;4.656;2024-03-17T09:50:55;8.07;;;4.80;;
69305;SDS011;56427;51.580;4.656;2024-03-17T09:53:25;8.93;;;5.10;;
69305;SDS011;56427;51.580;4.656;2024-03-17T09:55:52;10.43;;;5.57;;
69305;SDS011;56427;51.580;4.656;2024-03-17T09:58:22;9.53;;;4.93;;
69305;SDS011;56427;51.580;4.656;2024-03-17T10:00:47;9.23;;;4.93;;
69305;SDS011;56427;51.580;4.656;2024-03-17T10:06:13;9.30;;;4.80;;
69305;SDS011;56427;51.580;4.656;2024-03-17T10:09:00;7.45;;;4.85;;
69305;SDS011;56427;51.580;4.656;2024-03-17T10:11:41;8.70;;;4.88;;
69305;SDS011;56427;51.580;4.656;2024-03-17T10:14:07;8.55;;;4.53;;
69305;SDS011;56427;51.580;4.656;2024-03-17T10:16:34;7.57;;;4.03;;
69305;SDS011;56427;51.580;4.656;2024-03-17T10:21:40;8.25;;;4.20;;
69305;SDS011;56427;51.580;4.656;2024-03-17T10:26:49;8.23;;;4.53;;
69305;SDS011;56427;51.580;4.656;2024-03-17T10:29:26;9.67;;;4.97;;
69305;SDS011;56427;51.580;4.656;2024-03-17T10:34:19;8.27;;;4.40;;
69305;SDS011;56427;51.580;4.656;2024-03-17T10:36:45;8.75;;;4.45;;
69305;SDS011;56427;51.580;4.656;2024-03-17T10:39:25;11.20;;;4.23;;
69305;SDS011;56427;51.580;4.656;2024-03-17T10:41:59;6.55;;;3.75;;
69305;SDS011;56427;51.580;4.656;2024-03-17T10:44:26;10.45;;;4.43;;
69305;SDS011;56427;51.580;4.656;2024-03-17T10:46:54;10.00;;;4.30;;
69305;SDS011;56427;51.580;4.656;2024-03-17T10:49:22;9.55;;;4.00;;
69305;SDS011;56427;51.580;4.656;2024-03-17T10:51:52;10.40;;;4.00;;
69305;SDS011;56427;51.580;4.656;2024-03-17T10:54:23;10.88;;;3.85;;
69305;SDS011;56427;51.580;4.656;2024-03-17T10:56:53;9.10;;;4.32;;
69305;SDS011;56427;51.580;4.656;2024-03-17T10:59:20;8.38;;;4.10;;
69305;SDS011;56427;51.580;4.656;2024-03-17T11:01:57;7.65;;;3.65;;
69305;SDS011;56427;51.580;4.656;2024-03-17T11:04:22;8.67;;;3.90;;
69305;SDS011;56427;51.580;4.656;2024-03-17T11:06:48;7.97;;;3.70;;
69305;SDS011;56427;51.580;4.656;2024-03-17T11:09:14;10.47;;;4.07;;
69305;SDS011;56427;51.580;4.656;2024-03-17T11:11:41;9.07;;;3.60;;
69305;SDS011;56427;51.580;4.656;2024-03-17T11:14:18;7.95;;;4.07;;
69305;SDS011;56427;51.580;4.656;2024-03-17T11:16:47;10.80;;;4.00;;
69305;SDS011;56427;51.580;4.656;2024-03-17T11:19:16;7.87;;;3.60;;
69305;SDS011;56427;51.580;4.656;2024-03-17T11:21:42;7.00;;;3.55;;
69305;SDS011;56427;51.580;4.656;2024-03-17T11:24:18;9.48;;;3.72;;
69305;SDS011;56427;51.580;4.656;2024-03-17T11:26:45;8.50;;;3.33;;
69305;SDS011;56427;51.580;4.656;2024-03-17T11:29:29;6.65;;;3.30;;
69305;SDS011;56427;51.580;4.656;2024-03-17T11:31:54;9.87;;;3.57;;
69305;SDS011;56427;51.580;4.656;2024-03-17T11:34:33;6.93;;;3.00;;
69305;SDS011;56427;51.580;4.656;2024-03-17T11:36:59;11.35;;;3.45;;
69305;SDS011;56427;51.580;4.656;2024-03-17T11:42:22;10.50;;;4.13;;
69305;SDS011;56427;51.580;4.656;2024-03-17T11:45:01;9.48;;;4.28;;
69305;SDS011;56427;51.580;4.656;2024-03-17T11:47:34;13.63;;;4.05;;
69305;SDS011;56427;51.580;4.656;2024-03-17T11:50:04;7.50;;;3.97;;
69305;SDS011;56427;51.580;4.656;2024-03-17T11:52:32;10.52;;;3.85;;
69305;SDS011;56427;51.580;4.656;2024-03-17T11:54:57;8.37;;;3.90;;
69305;SDS011;56427;51.580;4.656;2024-03-17T11:57:23;7.80;;;4.10;;
69305;SDS011;56427;51.580;4.656;2024-03-17T11:59:51;9.88;;;3.90;;
69305;SDS011;56427;51.580;4.656;2024-03-17T12:02:21;8.13;;;3.77;;
69305;SDS011;56427;51.580;4.656;2024-03-17T12:04:48;9.48;;;4.00;;
69305;SDS011;56427;51.580;4.656;2024-03-17T12:07:18;10.35;;;3.95;;
69305;SDS011;56427;51.580;4.656;2024-03-17T12:09:48;9.50;;;3.83;;
69305;SDS011;56427;51.580;4.656;2024-03-17T12:12:21;8.88;;;3.97;;
69305;SDS011;56427;51.580;4.656;2024-03-17T12:14:48;9.50;;;4.27;;
69305;SDS011;56427;51.580;4.656;2024-03-17T12:17:15;12.10;;;4.18;;
69305;SDS011;56427;51.580;4.656;2024-03-17T12:19:46;8.27;;;3.78;;
69305;SDS011;56427;51.580;4.656;2024-03-17T12:22:15;12.77;;;4.32;;
69305;SDS011;56427;51.580;4.656;2024-03-17T12:24:46;10.95;;;4.63;;
69305;SDS011;56427;51.580;4.656;2024-03-17T12:27:16;7.73;;;3.80;;
69305;SDS011;56427;51.580;4.656;2024-03-17T12:29:50;8.65;;;3.85;;
69305;SDS011;56427;51.580;4.656;2024-03-17T12:32:17;9.52;;;3.75;;
69305;SDS011;56427;51.580;4.656;2024-03-17T12:34:46;7.93;;;3.35;;
69305;SDS011;56427;51.580;4.656;2024-03-17T12:37:16;11.38;;;3.53;;
69305;SDS011;56427;51.580;4.656;2024-03-17T12:39:43;11.17;;;3.40;;
69305;SDS011;56427;51.580;4.656;2024-03-17T12:42:09;11.88;;;4.70;;
69305;SDS011;56427;51.580;4.656;2024-03-17T12:44:47;7.07;;;3.50;;
69305;SDS011;56427;51.580;4.656;2024-03-17T12:47:14;8.18;;;3.50;;
69305;SDS011;56427;51.580;4.656;2024-03-17T12:50:00;11.17;;;3.50;;
69305;SDS011;56427;51.580;4.656;2024-03-17T12:52:30;9.32;;;3.60;;
69305;SDS011;56427;51.580;4.656;2024-03-17T12:57:44;7.93;;;3.30;;
69305;SDS011;56427;51.580;4.656;2024-03-17T13:00:29;9.27;;;3.22;;
69305;SDS011;56427;51.580;4.656;2024-03-17T13:03:02;9.50;;;3.30;;
69305;SDS011;56427;51.580;4.656;2024-03-17T13:05:29;8.38;;;3.30;;
69305;SDS011;56427;51.580;4.656;2024-03-17T13:07:56;9.50;;;3.63;;
69305;SDS011;56427;51.580;4.656;2024-03-17T13:10:22;8.57;;;3.67;;
69305;SDS011;56427;51.580;4.656;2024-03-17T13:13:02;9.07;;;3.70;;
69305;SDS011;56427;51.580;4.656;2024-03-17T13:15:29;7.83;;;3.90;;
69305;SDS011;56427;51.580;4.656;2024-03-17T13:17:58;7.35;;;3.13;;
69305;SDS011;56427;51.580;4.656;2024-03-17T13:20:24;9.00;;;3.47;;
69305;SDS011;56427;51.580;4.656;2024-03-17T13:22:50;6.57;;;3.10;;
69305;SDS011;56427;51.580;4.656;2024-03-17T13:25:16;8.20;;;3.45;;
69305;SDS011;56427;51.580;4.656;2024-03-17T13:27:43;8.17;;;2.93;;
69305;SDS011;56427;51.580;4.656;2024-03-17T13:30:10;8.82;;;2.97;;
69305;SDS011;56427;51.580;4.656;2024-03-17T13:32:36;8.13;;;3.10;;
69305;SDS011;56427;51.580;4.656;2024-03-17T13:35:01;6.17;;;2.87;;
69305;SDS011;56427;51.580;4.656;2024-03-17T13:37:27;8.57;;;2.75;;
69305;SDS011;56427;51.580;4.656;2024-03-17T13:39:53;6.70;;;3.00;;
69305;SDS011;56427;51.580;4.656;2024-03-17T13:42:18;6.23;;;3.00;;
69305;SDS011;56427;51.580;4.656;2024-03-17T13:44:43;7.07;;;2.60;;
69305;SDS011;56427;51.580;4.656;2024-03-17T13:47:09;6.75;;;3.08;;
69305;SDS011;56427;51.580;4.656;2024-03-17T13:49:34;8.83;;;2.60;;
69305;SDS011;56427;51.580;4.656;2024-03-17T13:51:59;6.50;;;2.53;;
69305;SDS011;56427;51.580;4.656;2024-03-17T13:54:25;6.73;;;2.57;;
69305;SDS011;56427;51.580;4.656;2024-03-17T13:56:50;6.73;;;2.53;;
69305;SDS011;56427;51.580;4.656;2024-03-17T13:59:16;5.60;;;2.60;;
69305;SDS011;56427;51.580;4.656;2024-03-17T14:01:44;7.65;;;3.03;;
69305;SDS011;56427;51.580;4.656;2024-03-17T14:04:13;6.20;;;2.90;;
69305;SDS011;56427;51.580;4.656;2024-03-17T14:06:40;7.88;;;3.33;;
69305;SDS011;56427;51.580;4.656;2024-03-17T14:09:05;9.13;;;3.30;;
69305;SDS011;56427;51.580;4.656;2024-03-17T14:11:34;8.60;;;2.95;;
69305;SDS011;56427;51.580;4.656;2024-03-17T14:13:59;8.57;;;2.85;;
69305;SDS011;56427;51.580;4.656;2024-03-17T14:16:25;7.93;;;3.27;;
69305;SDS011;56427;51.580;4.656;2024-03-17T14:18:50;5.60;;;2.50;;
69305;SDS011;56427;51.580;4.656;2024-03-17T14:21:15;6.50;;;2.70;;
69305;SDS011;56427;51.580;4.656;2024-03-17T14:23:41;6.77;;;3.00;;
69305;SDS011;56427;51.580;4.656;2024-03-17T14:26:08;7.10;;;2.80;;
69305;SDS011;56427;51.580;4.656;2024-03-17T14:28:34;7.70;;;3.08;;
69305;SDS011;56427;51.580;4.656;2024-03-17T14:31:00;5.47;;;2.97;;
69305;SDS011;56427;51.580;4.656;2024-03-17T14:33:26;6.05;;;2.83;;
69305;SDS011;56427;51.580;4.656;2024-03-17T14:35:57;7.33;;;3.00;;
69305;SDS011;56427;51.580;4.656;2024-03-17T14:38:23;7.33;;;3.33;;
69305;SDS011;56427;51.580;4.656;2024-03-17T14:40:51;8.20;;;3.25;;
69305;SDS011;56427;51.580;4.656;2024-03-17T14:43:17;8.02;;;3.03;;
69305;SDS011;56427;51.580;4.656;2024-03-17T14:45:42;9.63;;;3.33;;
69305;SDS011;56427;51.580;4.656;2024-03-17T14:48:08;8.07;;;3.07;;
69305;SDS011;56427;51.580;4.656;2024-03-17T14:50:34;5.72;;;3.00;;
69305;SDS011;56427;51.580;4.656;2024-03-17T14:53:01;6.33;;;3.00;;
69305;SDS011;56427;51.580;4.656;2024-03-17T14:55:26;7.07;;;2.85;;
69305;SDS011;56427;51.580;4.656;2024-03-17T14:57:51;5.83;;;3.00;;
69305;SDS011;56427;51.580;4.656;2024-03-17T15:00:17;7.73;;;3.37;;